Lezavel — FAA6945 — position and weather

sailwx.info

Track history (hours):
 
Tides and Currents Weather Stations Pressure Air Temp Water Temp Dewpoint Dewpoint Depression Visibility Wind Speed Wind Dir Waves Ship Positions

Lezavel

Last reported at 2018-Feb-23 11:27 UTC. Time now 2018-Feb-24 22:05 UTC.
Position N 47°33' W 002°53'.

Type: Pleasure craft. MMSI: 227147830.

Date/timePositionNaut miles runAvg speedWind from/ knotsBaromVisibWave heightAir tempDewpointWater temp
2018-Feb-23 11:27N 47°33' W 002°53'0 0.0
2018-Feb-23 11:01N 47°33' W 002°53'1 0.8
2018-Feb-23 10:22N 47°33' W 002°54'0 0.0
2018-Feb-22 16:57N 47°33' W 002°54'3 6.2
2018-Feb-22 16:28N 47°31' W 002°58'4 7.4
2018-Feb-22 15:59N 47°34' W 003°01'1 0.6
2018-Feb-22 14:06N 47°35' W 003°01'0 0.0
2018-Feb-22 13:57N 47°35' W 003°01'1 2.2
2018-Feb-22 13:30N 47°34' W 003°01'4 7.2
2018-Feb-22 13:00N 47°31' W 002°59'4 1.5
2018-Feb-22 10:14N 47°27' W 002°57'3 8.2
2018-Feb-22 09:55N 47°30' W 002°56'3 1.2
2018-Feb-22 07:28N 47°33' W 002°54'0 0.0
2018-Feb-22 06:55N 47°33' W 002°54'0 0.0
2018-Feb-22 06:22N 47°33' W 002°54'0 0.0
2018-Feb-22 05:58N 47°33' W 002°54'0 0.0
2018-Feb-22 05:25N 47°33' W 002°54'0 0.0
2018-Feb-22 04:58N 47°33' W 002°54'0 0.0
2018-Feb-22 04:10N 47°33' W 002°54'0 0.0
2018-Feb-22 03:52N 47°33' W 002°54'0 0.0
2018-Feb-22 03:28N 47°33' W 002°54'0 0.0
2018-Feb-22 02:58N 47°33' W 002°54'0 0.0
2018-Feb-22 02:25N 47°33' W 002°54'0 0.0
2018-Feb-22 01:55N 47°33' W 002°54'0 0.0
2018-Feb-22 01:22N 47°33' W 002°54'0 0.0
2018-Feb-22 00:34N 47°33' W 002°54'0 0.0
2018-Feb-22 00:19N 47°33' W 002°54'0 0.0
2018-Feb-21 23:40N 47°33' W 002°54'0 0.0
2018-Feb-21 23:10N 47°33' W 002°54'0 0.0
2018-Feb-21 22:58N 47°33' W 002°54'0 0.0
2018-Feb-21 22:25N 47°33' W 002°54'0 0.0
2018-Feb-21 21:55N 47°33' W 002°54'0 0.0
2018-Feb-21 21:28N 47°33' W 002°54'0 0.0
2018-Feb-21 20:58N 47°33' W 002°54'0 0.0
2018-Feb-21 20:25N 47°33' W 002°54'0 0.0
2018-Feb-21 19:52N 47°33' W 002°54'0 0.0
2018-Feb-21 19:28N 47°33' W 002°54'0 0.0
2018-Feb-21 18:52N 47°33' W 002°54'0 0.0
2018-Feb-21 18:22N 47°33' W 002°54'0 0.0
2018-Feb-21 17:58N 47°33' W 002°54'0 0.0
2018-Feb-21 17:22N 47°33' W 002°54'0 0.0
2018-Feb-21 16:55N 47°33' W 002°54'0 0.0
2018-Feb-21 16:28N 47°33' W 002°54'0 0.0
2018-Feb-21 15:25N 47°33' W 002°54'0 0.0
2018-Feb-21 14:10N 47°33' W 002°54'0 0.0
2018-Feb-21 13:28N 47°33' W 002°54'0 0.0
2018-Feb-21 12:01N 47°33' W 002°54'0 0.0
2018-Feb-21 10:55N 47°33' W 002°54'0 0.0
2018-Feb-21 09:16N 47°33' W 002°54'0 0.0
2018-Feb-21 08:46N 47°33' W 002°54'0 0.0
2018-Feb-21 05:37N 47°33' W 002°54'0 0.0
2018-Feb-21 05:28N 47°33' W 002°54'0 0.0
2018-Feb-21 04:55N 47°33' W 002°54'0 0.0
2018-Feb-21 04:28N 47°33' W 002°54'0 0.0
2018-Feb-21 03:58N 47°33' W 002°54'0 0.0
2018-Feb-21 03:16N 47°33' W 002°54'0 0.0
2018-Feb-21 02:55N 47°33' W 002°54'0 0.0
2018-Feb-21 02:22N 47°33' W 002°54'0 0.0
2018-Feb-21 01:55N 47°33' W 002°54'0 0.0
2018-Feb-21 01:22N 47°33' W 002°54'0 0.0
2018-Feb-21 00:58N 47°33' W 002°54'0 0.0
2018-Feb-21 00:22N 47°33' W 002°54'0 0.0
2018-Feb-20 23:58N 47°33' W 002°54'0 0.0
2018-Feb-20 23:22N 47°33' W 002°54'0 0.0
2018-Feb-20 22:58N 47°33' W 002°54'0 0.0
2018-Feb-20 22:13N 47°33' W 002°54'0 0.0
2018-Feb-20 21:16N 47°33' W 002°54'0 0.0
2018-Feb-20 20:58N 47°33' W 002°54'0 0.0
2018-Feb-20 20:22N 47°33' W 002°54'0 0.0
2018-Feb-20 19:58N 47°33' W 002°54'0 0.0
2018-Feb-20 19:25N 47°33' W 002°54'0 0.0
2018-Feb-20 18:58N 47°33' W 002°54'0 0.0
2018-Feb-20 18:22N 47°33' W 002°54'0 0.0
2018-Feb-20 17:58N 47°33' W 002°54'0 0.0
2018-Feb-20 16:52N 47°33' W 002°54'0 0.0
2018-Feb-20 16:22N 47°33' W 002°54'  
Track history (hours):
 
Tides and Currents Weather Stations Pressure Air Temp Water Temp Dewpoint Dewpoint Depression Visibility Wind Speed Wind Dir Waves Ship Positions

Lezavel

Last reported at 2018-Feb-23 11:27 UTC. Time now 2018-Feb-24 22:05 UTC.
Position N 47°33' W 002°53'.

Type: Pleasure craft. MMSI: 227147830.

Date/timePositionNaut miles runAvg speedWind from/ knotsBaromVisibWave heightAir tempDewpointWater temp
2018-Feb-23 11:27N 47°33' W 002°53'0 0.0
2018-Feb-23 11:01N 47°33' W 002°53'1 0.8
2018-Feb-23 10:22N 47°33' W 002°54'0 0.0
2018-Feb-22 16:57N 47°33' W 002°54'3 6.2
2018-Feb-22 16:28N 47°31' W 002°58'4 7.4
2018-Feb-22 15:59N 47°34' W 003°01'1 0.6
2018-Feb-22 14:06N 47°35' W 003°01'0 0.0
2018-Feb-22 13:57N 47°35' W 003°01'1 2.2
2018-Feb-22 13:30N 47°34' W 003°01'4 7.2
2018-Feb-22 13:00N 47°31' W 002°59'4 1.5
2018-Feb-22 10:14N 47°27' W 002°57'3 8.2
2018-Feb-22 09:55N 47°30' W 002°56'3 1.2
2018-Feb-22 07:28N 47°33' W 002°54'0 0.0
2018-Feb-22 06:55N 47°33' W 002°54'0 0.0
2018-Feb-22 06:22N 47°33' W 002°54'0 0.0
2018-Feb-22 05:58N 47°33' W 002°54'0 0.0
2018-Feb-22 05:25N 47°33' W 002°54'0 0.0
2018-Feb-22 04:58N 47°33' W 002°54'0 0.0
2018-Feb-22 04:10N 47°33' W 002°54'0 0.0
2018-Feb-22 03:52N 47°33' W 002°54'0 0.0
2018-Feb-22 03:28N 47°33' W 002°54'0 0.0
2018-Feb-22 02:58N 47°33' W 002°54'0 0.0
2018-Feb-22 02:25N 47°33' W 002°54'0 0.0
2018-Feb-22 01:55N 47°33' W 002°54'0 0.0
2018-Feb-22 01:22N 47°33' W 002°54'0 0.0
2018-Feb-22 00:34N 47°33' W 002°54'0 0.0
2018-Feb-22 00:19N 47°33' W 002°54'0 0.0
2018-Feb-21 23:40N 47°33' W 002°54'0 0.0
2018-Feb-21 23:10N 47°33' W 002°54'0 0.0
2018-Feb-21 22:58N 47°33' W 002°54'0 0.0
2018-Feb-21 22:25N 47°33' W 002°54'0 0.0
2018-Feb-21 21:55N 47°33' W 002°54'0 0.0
2018-Feb-21 21:28N 47°33' W 002°54'0 0.0
2018-Feb-21 20:58N 47°33' W 002°54'0 0.0
2018-Feb-21 20:25N 47°33' W 002°54'0 0.0
2018-Feb-21 19:52N 47°33' W 002°54'0 0.0
2018-Feb-21 19:28N 47°33' W 002°54'0 0.0
2018-Feb-21 18:52N 47°33' W 002°54'0 0.0
2018-Feb-21 18:22N 47°33' W 002°54'0 0.0
2018-Feb-21 17:58N 47°33' W 002°54'0 0.0
2018-Feb-21 17:22N 47°33' W 002°54'0 0.0
2018-Feb-21 16:55N 47°33' W 002°54'0 0.0
2018-Feb-21 16:28N 47°33' W 002°54'0 0.0
2018-Feb-21 15:25N 47°33' W 002°54'0 0.0
2018-Feb-21 14:10N 47°33' W 002°54'0 0.0
2018-Feb-21 13:28N 47°33' W 002°54'0 0.0
2018-Feb-21 12:01N 47°33' W 002°54'0 0.0
2018-Feb-21 10:55N 47°33' W 002°54'0 0.0
2018-Feb-21 09:16N 47°33' W 002°54'0 0.0
2018-Feb-21 08:46N 47°33' W 002°54'0 0.0
2018-Feb-21 05:37N 47°33' W 002°54'0 0.0
2018-Feb-21 05:28N 47°33' W 002°54'0 0.0
2018-Feb-21 04:55N 47°33' W 002°54'0 0.0
2018-Feb-21 04:28N 47°33' W 002°54'0 0.0
2018-Feb-21 03:58N 47°33' W 002°54'0 0.0
2018-Feb-21 03:16N 47°33' W 002°54'0 0.0
2018-Feb-21 02:55N 47°33' W 002°54'0 0.0
2018-Feb-21 02:22N 47°33' W 002°54'0 0.0
2018-Feb-21 01:55N 47°33' W 002°54'0 0.0
2018-Feb-21 01:22N 47°33' W 002°54'0 0.0
2018-Feb-21 00:58N 47°33' W 002°54'0 0.0
2018-Feb-21 00:22N 47°33' W 002°54'0 0.0
2018-Feb-20 23:58N 47°33' W 002°54'0 0.0
2018-Feb-20 23:22N 47°33' W 002°54'0 0.0
2018-Feb-20 22:58N 47°33' W 002°54'0 0.0
2018-Feb-20 22:13N 47°33' W 002°54'0 0.0
2018-Feb-20 21:16N 47°33' W 002°54'0 0.0
2018-Feb-20 20:58N 47°33' W 002°54'0 0.0
2018-Feb-20 20:22N 47°33' W 002°54'0 0.0
2018-Feb-20 19:58N 47°33' W 002°54'0 0.0
2018-Feb-20 19:25N 47°33' W 002°54'0 0.0
2018-Feb-20 18:58N 47°33' W 002°54'0 0.0
2018-Feb-20 18:22N 47°33' W 002°54'0 0.0
2018-Feb-20 17:58N 47°33' W 002°54'0 0.0
2018-Feb-20 16:52N 47°33' W 002°54'0 0.0
2018-Feb-20 16:22N 47°33' W 002°54'  

Dump ship's entire track history